createdAt,value
2022-08-11T00:00:04.878Z,20.05
2022-08-11T00:01:04.870Z,20.02
2022-08-11T00:02:04.923Z,19.99
2022-08-11T00:03:04.886Z,19.95
2022-08-11T00:04:04.833Z,19.94
2022-08-11T00:05:04.827Z,19.87
2022-08-11T00:06:04.885Z,19.84
2022-08-11T00:07:04.783Z,19.80
2022-08-11T00:08:04.823Z,19.76
2022-08-11T00:09:04.784Z,19.73
2022-08-11T00:10:04.786Z,19.66
2022-08-11T00:11:04.771Z,19.63
2022-08-11T00:12:04.744Z,19.61
2022-08-11T00:13:04.730Z,19.55
2022-08-11T00:14:04.732Z,19.50
2022-08-11T00:15:04.706Z,19.46
2022-08-11T00:16:04.937Z,19.41
2022-08-11T00:17:04.675Z,19.37
2022-08-11T00:18:04.995Z,19.32
2022-08-11T00:19:04.657Z,19.29
2022-08-11T00:20:13.720Z,19.26
2022-08-11T00:21:05.639Z,19.22
2022-08-11T00:22:06.145Z,19.18
2022-08-11T00:23:04.638Z,19.14
2022-08-11T00:24:04.658Z,19.11
2022-08-11T00:25:04.628Z,19.08
2022-08-11T00:26:04.587Z,19.04
2022-08-11T00:27:04.559Z,19.00
2022-08-11T00:28:04.592Z,18.98
2022-08-11T00:29:04.540Z,18.95
2022-08-11T00:30:04.542Z,18.94
2022-08-11T00:31:04.691Z,18.90
2022-08-11T00:32:04.646Z,18.91
2022-08-11T00:33:04.513Z,18.88
2022-08-11T00:34:04.655Z,18.85
2022-08-11T00:35:51.693Z,18.85
2022-08-11T00:36:05.472Z,18.84
2022-08-11T00:37:04.451Z,18.82
2022-08-11T00:38:04.514Z,18.81
2022-08-11T00:39:04.464Z,18.80
2022-08-11T00:40:04.576Z,18.78
2022-08-11T00:41:04.413Z,18.78
2022-08-11T00:42:04.402Z,18.75
2022-08-11T00:43:04.421Z,18.75
2022-08-11T00:44:04.461Z,18.73
2022-08-11T00:45:04.383Z,18.72
2022-08-11T00:46:04.373Z,18.72
2022-08-11T00:47:04.346Z,18.73
2022-08-11T00:48:04.344Z,18.73
2022-08-11T00:49:04.336Z,18.73
2022-08-11T00:50:04.373Z,18.73
2022-08-11T00:51:04.690Z,18.73
2022-08-11T00:52:06.222Z,18.75
2022-08-11T00:53:04.307Z,18.76
2022-08-11T00:54:04.301Z,18.78
2022-08-11T00:55:04.257Z,18.78
2022-08-11T00:56:04.249Z,18.78
2022-08-11T00:57:04.256Z,18.78
2022-08-11T00:58:05.258Z,18.80
2022-08-11T00:59:04.218Z,18.78
2022-08-11T01:00:04.297Z,18.76
2022-08-11T01:01:04.387Z,18.76
2022-08-11T01:02:04.218Z,18.76
2022-08-11T01:03:04.190Z,18.75
2022-08-11T01:04:04.247Z,18.73
2022-08-11T01:05:04.170Z,18.72
2022-08-11T01:06:05.391Z,18.69
2022-08-11T01:07:04.150Z,18.69
2022-08-11T01:08:04.181Z,18.65
2022-08-11T01:09:04.388Z,18.65
2022-08-11T01:10:07.300Z,18.63
2022-08-11T01:11:04.549Z,18.62
2022-08-11T01:12:04.122Z,18.58
2022-08-11T01:13:04.062Z,18.57
2022-08-11T01:14:04.333Z,18.57
2022-08-11T01:15:04.326Z,18.54
2022-08-11T01:16:04.064Z,18.52
2022-08-11T01:17:04.135Z,18.52
2022-08-11T01:18:04.130Z,18.51
2022-08-11T01:19:04.012Z,18.51
2022-08-11T01:20:44.938Z,18.48
2022-08-11T01:21:04.994Z,18.47
2022-08-11T01:22:04.082Z,18.45
2022-08-11T01:23:03.964Z,18.44
2022-08-11T01:24:03.957Z,18.42
2022-08-11T01:25:03.935Z,18.42
2022-08-11T01:26:03.929Z,18.42
2022-08-11T01:27:03.915Z,18.41
2022-08-11T01:28:04.961Z,18.42
2022-08-11T01:29:03.927Z,18.44
2022-08-11T01:30:04.061Z,18.44
2022-08-11T01:31:03.881Z,18.42
2022-08-11T01:32:03.862Z,18.44
2022-08-11T01:33:04.210Z,18.45
2022-08-11T01:34:03.982Z,18.44
2022-08-11T01:35:03.837Z,18.47
2022-08-11T01:36:03.823Z,18.47
2022-08-11T01:37:03.828Z,18.48
2022-08-11T01:38:03.829Z,18.50
2022-08-11T01:39:03.789Z,18.52
2022-08-11T01:40:03.885Z,18.52
2022-08-11T01:41:03.787Z,18.54
2022-08-11T01:42:03.752Z,18.57
2022-08-11T01:43:03.750Z,18.60
2022-08-11T01:44:03.764Z,18.62
2022-08-11T01:45:04.730Z,18.65
2022-08-11T01:46:03.902Z,18.67
2022-08-11T01:47:03.701Z,18.70
2022-08-11T01:48:03.730Z,18.70
2022-08-11T01:49:29.004Z,18.75
2022-08-11T01:50:09.681Z,18.76
2022-08-11T01:51:04.716Z,18.80
2022-08-11T01:52:03.754Z,18.82
2022-08-11T01:53:04.625Z,18.84
2022-08-11T01:54:03.674Z,18.87
2022-08-11T01:55:03.603Z,18.88
2022-08-11T01:56:03.605Z,18.88
2022-08-11T01:57:03.587Z,18.92
2022-08-11T01:58:03.608Z,18.92
2022-08-11T01:59:03.583Z,18.95
2022-08-11T02:00:03.611Z,18.99
2022-08-11T02:01:03.603Z,19.00
2022-08-11T02:02:03.576Z,19.02
2022-08-11T02:03:03.526Z,19.00
2022-08-11T02:04:03.534Z,19.06
2022-08-11T02:05:03.488Z,19.06
2022-08-11T02:06:03.555Z,19.06
2022-08-11T02:07:03.466Z,19.07
2022-08-11T02:08:04.466Z,19.07
2022-08-11T02:09:03.458Z,19.07
2022-08-11T02:10:03.456Z,19.06
2022-08-11T02:11:04.781Z,19.04
2022-08-11T02:12:03.510Z,19.02
2022-08-11T02:13:03.417Z,18.98
2022-08-11T02:14:03.441Z,18.98
2022-08-11T02:15:04.578Z,18.92
2022-08-11T02:16:03.413Z,18.90
2022-08-11T02:17:03.351Z,18.87
2022-08-11T02:18:03.358Z,18.84
2022-08-11T02:19:03.353Z,18.78
2022-08-11T02:20:03.350Z,18.75
2022-08-11T02:21:03.322Z,18.70
2022-08-11T02:22:03.353Z,18.67
2022-08-11T02:23:03.311Z,18.63
2022-08-11T02:24:05.309Z,18.57
2022-08-11T02:25:03.407Z,18.52
2022-08-11T02:26:03.270Z,18.50
2022-08-11T02:27:03.253Z,18.44
2022-08-11T02:28:03.279Z,18.39
2022-08-11T02:29:03.251Z,18.35
2022-08-11T02:30:03.375Z,18.32
2022-08-11T02:31:03.213Z,18.27
2022-08-11T02:32:14.548Z,18.21
2022-08-11T02:33:04.224Z,18.18
2022-08-11T02:34:03.217Z,18.14
2022-08-11T02:35:03.164Z,18.11
2022-08-11T02:36:03.155Z,18.08
2022-08-11T02:37:03.166Z,18.07
2022-08-11T02:38:03.174Z,18.02
2022-08-11T02:39:03.155Z,18.03
2022-08-11T02:40:03.149Z,18.00
2022-08-11T02:41:03.096Z,18.00
2022-08-11T02:42:03.088Z,18.00
2022-08-11T02:43:03.079Z,18.00
2022-08-11T02:44:03.127Z,18.00
2022-08-11T02:45:03.198Z,18.02
2022-08-11T02:46:03.076Z,18.02
2022-08-11T02:47:03.044Z,18.02
2022-08-11T02:48:03.218Z,18.03
2022-08-11T02:49:03.008Z,18.03
2022-08-11T02:50:07.426Z,18.03
2022-08-11T02:51:02.990Z,18.07
2022-08-11T02:52:03.090Z,18.07
2022-08-11T02:53:02.980Z,18.10
2022-08-11T02:54:02.971Z,18.11
2022-08-11T02:55:02.949Z,18.12
2022-08-11T02:56:02.957Z,18.14
2022-08-11T02:57:02.920Z,18.14
2022-08-11T02:58:02.920Z,18.17
2022-08-11T02:59:02.902Z,18.21
2022-08-11T03:00:02.910Z,18.23
2022-08-11T03:01:02.882Z,18.25
2022-08-11T03:02:04.784Z,18.26
2022-08-11T03:03:02.916Z,18.26
2022-08-11T03:04:02.853Z,18.25
2022-08-11T03:05:02.856Z,18.23
2022-08-11T03:06:02.884Z,18.21
2022-08-11T03:07:02.812Z,18.17
2022-08-11T03:08:02.832Z,18.14
2022-08-11T03:09:02.806Z,18.08
2022-08-11T03:10:02.956Z,18.05
2022-08-11T03:11:02.777Z,18.02
2022-08-11T03:12:02.817Z,17.97
2022-08-11T03:13:02.755Z,17.93
2022-08-11T03:14:02.813Z,17.89
2022-08-11T03:15:02.816Z,17.84
2022-08-11T03:16:02.777Z,17.81
2022-08-11T03:17:02.727Z,17.78
2022-08-11T03:18:02.728Z,17.75
2022-08-11T03:19:02.686Z,17.72
2022-08-11T03:20:02.760Z,17.68
2022-08-11T03:21:02.668Z,17.66
2022-08-11T03:22:03.699Z,17.59
2022-08-11T03:23:02.650Z,17.59
2022-08-11T03:24:02.743Z,17.58
2022-08-11T03:25:02.630Z,17.55
2022-08-11T03:26:02.652Z,17.52
2022-08-11T03:27:02.610Z,17.52
2022-08-11T03:28:02.831Z,17.51
2022-08-11T03:29:02.579Z,17.49
2022-08-11T03:30:02.633Z,17.51
2022-08-11T03:31:02.554Z,17.49
2022-08-11T03:32:02.639Z,17.49
2022-08-11T03:33:02.610Z,17.49
2022-08-11T03:34:06.270Z,17.49
2022-08-11T03:35:02.532Z,17.49
2022-08-11T03:36:02.564Z,17.46
2022-08-11T03:37:16.981Z,17.46
2022-08-11T03:38:03.482Z,17.44
2022-08-11T03:39:02.603Z,17.43
2022-08-11T03:40:02.664Z,17.41
2022-08-11T03:41:02.452Z,17.40
2022-08-11T03:42:06.779Z,17.37
2022-08-11T03:43:03.443Z,17.34
2022-08-11T03:44:02.420Z,17.31
2022-08-11T03:45:02.432Z,17.28
2022-08-11T03:46:02.542Z,17.25
2022-08-11T03:47:02.385Z,17.21
2022-08-11T03:48:02.464Z,17.18
2022-08-11T03:49:02.362Z,17.14
2022-08-11T03:50:02.374Z,17.12
2022-08-11T03:51:02.365Z,17.08
2022-08-11T03:52:02.359Z,17.06
2022-08-11T03:53:02.317Z,17.04
2022-08-11T03:54:02.306Z,17.00
2022-08-11T03:55:02.296Z,16.98
2022-08-11T03:56:02.485Z,16.96
2022-08-11T03:57:02.278Z,16.94
2022-08-11T03:58:02.406Z,16.93
2022-08-11T03:59:02.246Z,16.89
2022-08-11T04:00:02.328Z,16.89
2022-08-11T04:01:02.273Z,16.86
2022-08-11T04:02:02.295Z,16.86
2022-08-11T04:03:02.229Z,16.85
2022-08-11T04:04:02.258Z,16.83
2022-08-11T04:05:02.261Z,16.83
2022-08-11T04:06:02.279Z,16.82
2022-08-11T04:07:02.151Z,16.79
2022-08-11T04:08:02.240Z,16.78
2022-08-11T04:09:02.142Z,16.78
2022-08-11T04:10:02.131Z,16.75
2022-08-11T04:11:02.141Z,16.73
2022-08-11T04:12:02.101Z,16.71
2022-08-11T04:13:02.093Z,16.68
2022-08-11T04:14:02.202Z,16.68
2022-08-11T04:15:02.071Z,16.67
2022-08-11T04:16:11.251Z,16.64
2022-08-11T04:17:03.041Z,16.64
2022-08-11T04:18:02.042Z,16.64
2022-08-11T04:19:02.046Z,16.63
2022-08-11T04:20:02.054Z,16.61
2022-08-11T04:21:02.005Z,16.61
2022-08-11T04:22:02.063Z,16.61
2022-08-11T04:23:01.974Z,16.60
2022-08-11T04:24:35.439Z,16.60
2022-08-11T04:25:02.954Z,16.58
2022-08-11T04:26:01.948Z,16.57
2022-08-11T04:27:04.909Z,16.56
2022-08-11T04:28:01.981Z,16.53
2022-08-11T04:29:01.915Z,16.53
2022-08-11T04:30:04.902Z,16.50
2022-08-11T04:31:01.897Z,16.49
2022-08-11T04:32:01.928Z,16.49
2022-08-11T04:33:01.877Z,16.48
2022-08-11T04:34:01.937Z,16.46
2022-08-11T04:35:01.875Z,16.45
2022-08-11T04:36:01.935Z,16.43
2022-08-11T04:37:01.841Z,16.42
2022-08-11T04:38:01.826Z,16.42
2022-08-11T04:39:01.846Z,16.41
2022-08-11T04:40:01.827Z,16.41
2022-08-11T04:41:01.800Z,16.41
2022-08-11T04:42:01.788Z,16.39
2022-08-11T04:43:01.762Z,16.39
2022-08-11T04:44:04.544Z,16.39
2022-08-11T04:45:01.741Z,16.39
2022-08-11T04:46:01.738Z,16.41
2022-08-11T04:47:01.719Z,16.41
2022-08-11T04:48:04.328Z,16.41
2022-08-11T04:49:01.708Z,16.42
2022-08-11T04:50:01.691Z,16.41
2022-08-11T04:51:16.596Z,16.43
2022-08-11T04:52:02.666Z,16.42
2022-08-11T04:53:01.645Z,16.43
2022-08-11T04:54:01.682Z,16.42
2022-08-11T04:55:01.621Z,16.43
2022-08-11T04:56:01.712Z,16.43
2022-08-11T04:57:01.623Z,16.45
2022-08-11T04:58:01.612Z,16.46
2022-08-11T04:59:01.575Z,16.49
2022-08-11T05:00:01.585Z,16.49
2022-08-11T05:01:01.565Z,16.50
2022-08-11T05:02:01.711Z,16.52
2022-08-11T05:03:01.538Z,16.53
2022-08-11T05:04:01.535Z,16.56
2022-08-11T05:05:01.530Z,16.57
2022-08-11T05:06:01.539Z,16.57
2022-08-11T05:07:01.506Z,16.58
2022-08-11T05:08:01.494Z,16.60
2022-08-11T05:09:01.466Z,16.61
2022-08-11T05:10:01.466Z,16.61
2022-08-11T05:11:01.456Z,16.63
2022-08-11T05:12:01.936Z,16.64
2022-08-11T05:13:01.426Z,16.64
2022-08-11T05:14:01.425Z,16.66
2022-08-11T05:15:01.398Z,16.67
2022-08-11T05:16:01.396Z,16.67
2022-08-11T05:17:01.438Z,16.70
2022-08-11T05:18:01.379Z,16.70
2022-08-11T05:19:01.379Z,16.73
2022-08-11T05:20:01.358Z,16.75
2022-08-11T05:21:04.857Z,16.78
2022-08-11T05:22:01.339Z,16.79
2022-08-11T05:23:01.330Z,16.82
2022-08-11T05:24:01.333Z,16.83
2022-08-11T05:25:01.387Z,16.85
2022-08-11T05:26:46.973Z,16.88
2022-08-11T05:27:02.300Z,16.89
2022-08-11T05:28:01.260Z,16.93
2022-08-11T05:29:01.253Z,16.94
2022-08-11T05:30:02.251Z,16.97
2022-08-11T05:31:01.243Z,16.98
2022-08-11T05:32:01.232Z,17.01
2022-08-11T05:33:02.406Z,17.04
2022-08-11T05:34:01.208Z,17.07
2022-08-11T05:35:01.185Z,17.07
2022-08-11T05:36:03.304Z,17.12
2022-08-11T05:37:23.947Z,17.15
2022-08-11T05:38:02.174Z,17.16
2022-08-11T05:39:01.133Z,17.19
2022-08-11T05:40:01.208Z,17.22
2022-08-11T05:41:01.135Z,17.25
2022-08-11T05:42:01.155Z,17.28
2022-08-11T05:43:01.094Z,17.31
2022-08-11T05:44:20.005Z,17.34
2022-08-11T05:45:02.076Z,17.37
2022-08-11T05:46:03.431Z,17.40
2022-08-11T05:47:01.081Z,17.44
2022-08-11T05:48:01.057Z,17.49
2022-08-11T05:49:01.045Z,17.54
2022-08-11T05:50:01.080Z,17.56
2022-08-11T05:51:01.016Z,17.62
2022-08-11T05:52:05.406Z,17.64
2022-08-11T05:53:01.986Z,17.71
2022-08-11T05:54:00.977Z,17.75
2022-08-11T05:55:06.939Z,17.79
2022-08-11T05:56:03.703Z,17.84
2022-08-11T05:57:00.947Z,17.92
2022-08-11T05:58:00.991Z,17.97
2022-08-11T05:59:00.915Z,18.05
2022-08-11T06:00:00.918Z,18.17
2022-08-11T06:01:00.921Z,18.32
2022-08-11T06:02:00.982Z,18.47
2022-08-11T06:03:00.967Z,18.66
2022-08-11T06:04:00.865Z,18.90
2022-08-11T06:05:00.861Z,19.14
2022-08-11T06:06:00.849Z,19.39
2022-08-11T06:07:00.828Z,19.58
2022-08-11T06:08:00.854Z,19.83
2022-08-11T06:09:00.832Z,20.05
2022-08-11T06:10:00.836Z,20.31
2022-08-11T06:11:00.795Z,20.58
2022-08-11T06:12:00.783Z,20.85
2022-08-11T06:13:00.773Z,21.16
2022-08-11T06:14:00.773Z,21.46
2022-08-11T06:15:00.757Z,21.82
2022-08-11T06:16:06.303Z,22.09
2022-08-11T06:17:01.715Z,22.35
2022-08-11T06:18:00.726Z,22.61
2022-08-11T06:19:00.694Z,22.91
2022-08-11T06:20:05.538Z,23.17
2022-08-11T06:21:01.692Z,23.53
2022-08-11T06:22:00.664Z,23.85
2022-08-11T06:23:00.677Z,24.10
2022-08-11T06:24:00.728Z,24.34
2022-08-11T06:25:00.956Z,24.58
2022-08-11T06:26:00.768Z,24.87
2022-08-11T06:27:12.494Z,25.10
2022-08-11T06:28:01.643Z,25.33
2022-08-11T06:29:00.600Z,25.52
2022-08-11T06:30:00.581Z,25.72
2022-08-11T06:31:00.568Z,25.91
2022-08-11T06:32:00.601Z,26.09
2022-08-11T06:33:00.554Z,26.28
2022-08-11T06:34:00.532Z,26.40
2022-08-11T06:35:00.523Z,26.58
2022-08-11T06:36:00.543Z,26.73
2022-08-11T06:37:00.541Z,26.88
2022-08-11T06:38:00.492Z,27.02
2022-08-11T06:39:00.473Z,27.12
2022-08-11T06:40:00.557Z,27.21
2022-08-11T06:41:00.464Z,27.25
2022-08-11T06:42:00.456Z,27.31
2022-08-11T06:43:00.435Z,27.36
2022-08-11T06:44:05.093Z,27.43
2022-08-11T06:45:01.421Z,27.47
2022-08-11T06:46:00.397Z,27.51
2022-08-11T06:47:00.437Z,27.63
2022-08-11T06:48:00.388Z,27.70
2022-08-11T06:49:00.373Z,27.79
2022-08-11T06:50:00.370Z,27.90
2022-08-11T06:51:00.354Z,27.93
2022-08-11T06:52:00.652Z,28.00
2022-08-11T06:53:00.330Z,28.03
2022-08-11T06:54:04.327Z,28.09
2022-08-11T06:55:00.312Z,28.11
2022-08-11T06:56:00.334Z,28.14
2022-08-11T06:57:28.945Z,28.17
2022-08-11T06:58:01.290Z,28.19
2022-08-11T06:59:00.297Z,28.21
2022-08-11T07:00:00.369Z,28.25
2022-08-11T07:01:00.264Z,28.29
2022-08-11T07:02:00.306Z,28.37
2022-08-11T07:03:00.246Z,28.44
2022-08-11T07:04:00.204Z,28.56
2022-08-11T07:05:00.207Z,28.67
2022-08-11T07:06:00.195Z,28.76
2022-08-11T07:07:00.179Z,28.90
2022-08-11T07:08:00.216Z,29.04
2022-08-11T07:09:01.158Z,29.09
2022-08-11T07:10:00.180Z,29.16
2022-08-11T07:11:00.136Z,29.19
2022-08-11T07:12:00.128Z,29.24
2022-08-11T07:13:00.122Z,29.30
2022-08-11T07:14:00.101Z,29.36
2022-08-11T07:15:00.767Z,29.42
2022-08-11T07:16:12.655Z,29.51
2022-08-11T07:17:01.080Z,29.58
2022-08-11T07:18:00.078Z,29.64
2022-08-11T07:19:00.057Z,29.74
2022-08-11T07:20:00.065Z,29.85
2022-08-11T07:21:02.313Z,29.90
2022-08-11T07:22:03.570Z,29.98
2022-08-11T07:23:00.019Z,30.05
2022-08-11T07:24:00.059Z,30.08
2022-08-11T07:25:02.519Z,30.10
2022-08-11T07:25:59.995Z,30.11
2022-08-11T07:27:00.006Z,30.13
2022-08-11T07:27:59.966Z,30.19
2022-08-11T07:29:00.108Z,30.22
2022-08-11T07:30:00.029Z,30.32
2022-08-11T07:30:59.969Z,30.38
2022-08-11T07:31:59.945Z,30.43
2022-08-11T07:32:59.951Z,30.51
2022-08-11T07:34:07.984Z,30.54
2022-08-11T07:35:00.972Z,30.57
2022-08-11T07:35:59.953Z,30.61
2022-08-11T07:36:59.983Z,30.70
2022-08-11T07:38:02.257Z,30.77
2022-08-11T07:38:59.863Z,30.88
2022-08-11T07:39:59.977Z,30.97
2022-08-11T07:40:59.823Z,31.06
2022-08-11T07:41:59.807Z,31.13
2022-08-11T07:42:59.806Z,31.19
2022-08-11T07:43:59.784Z,31.25
2022-08-11T07:44:59.784Z,31.31
2022-08-11T07:45:59.762Z,31.36
2022-08-11T07:46:59.756Z,31.43
2022-08-11T07:47:59.765Z,31.48
2022-08-11T07:48:59.728Z,31.54
2022-08-11T07:49:59.768Z,31.58
2022-08-11T07:50:59.709Z,31.63
2022-08-11T07:51:59.728Z,31.73
2022-08-11T07:52:59.708Z,31.75
2022-08-11T07:54:07.649Z,31.76
2022-08-11T07:55:00.682Z,31.76
2022-08-11T07:55:59.677Z,31.88
2022-08-11T07:57:08.923Z,31.96
2022-08-11T07:58:16.455Z,32.04
2022-08-11T07:59:05.216Z,32.10
2022-08-11T08:00:04.753Z,32.19
2022-08-11T08:01:01.240Z,32.22
2022-08-11T08:01:59.653Z,32.28
2022-08-11T08:02:59.601Z,32.32
2022-08-11T08:03:59.605Z,32.30
2022-08-11T08:04:59.565Z,32.28
2022-08-11T08:05:59.594Z,32.22
2022-08-11T08:06:59.557Z,31.48
2022-08-11T08:07:59.566Z,30.70
2022-08-11T08:08:59.540Z,29.95
2022-08-11T08:09:59.523Z,29.42
2022-08-11T08:10:59.549Z,29.09
2022-08-11T08:11:59.509Z,28.80
2022-08-11T08:12:59.490Z,28.74
2022-08-11T08:13:59.489Z,28.83
2022-08-11T08:14:59.468Z,28.78
2022-08-11T08:15:59.511Z,28.58
2022-08-11T08:16:59.453Z,28.40
2022-08-11T08:18:20.641Z,28.27
2022-08-11T08:19:00.434Z,28.25
2022-08-11T08:19:59.422Z,28.18
2022-08-11T08:20:59.407Z,28.15
2022-08-11T08:22:04.319Z,28.21
2022-08-11T08:23:00.404Z,28.46
2022-08-11T08:23:59.396Z,28.71
2022-08-11T08:24:59.426Z,28.78
2022-08-11T08:25:59.389Z,28.81
2022-08-11T08:26:59.356Z,28.90
2022-08-11T08:27:59.347Z,29.15
2022-08-11T08:28:59.357Z,29.39
2022-08-11T08:29:59.327Z,29.42
2022-08-11T08:30:59.326Z,29.36
2022-08-11T08:31:59.323Z,29.23
2022-08-11T08:32:59.290Z,29.02
2022-08-11T08:33:59.301Z,28.90
2022-08-11T08:34:59.288Z,28.86
2022-08-11T08:35:59.272Z,28.93
2022-08-11T08:36:59.255Z,29.08
2022-08-11T08:37:59.297Z,29.23
2022-08-11T08:38:59.262Z,29.27
2022-08-11T08:39:59.299Z,29.30
2022-08-11T08:40:59.228Z,29.33
2022-08-11T08:41:59.233Z,29.43
2022-08-11T08:42:59.193Z,29.46
2022-08-11T08:44:15.123Z,29.46
2022-08-11T08:45:00.178Z,29.58
2022-08-11T08:45:59.176Z,29.83
2022-08-11T08:46:59.171Z,29.94
2022-08-11T08:47:59.178Z,29.90
2022-08-11T08:48:59.146Z,29.78
2022-08-11T08:49:59.145Z,29.70
2022-08-11T08:50:59.130Z,29.61
2022-08-11T08:52:18.651Z,29.61
2022-08-11T08:53:00.099Z,29.61
2022-08-11T08:53:59.110Z,29.61
2022-08-11T08:54:59.083Z,29.58
2022-08-11T08:55:59.082Z,29.57
2022-08-11T08:56:59.069Z,29.52
2022-08-11T08:57:59.058Z,29.53
2022-08-11T08:58:59.062Z,29.64
2022-08-11T08:59:59.050Z,29.79
2022-08-11T09:00:59.078Z,29.97
2022-08-11T09:01:59.023Z,30.04
2022-08-11T09:02:59.024Z,30.08
2022-08-11T09:04:05.304Z,30.15
2022-08-11T09:05:00.002Z,30.10
2022-08-11T09:05:58.987Z,30.07
2022-08-11T09:06:58.974Z,30.07
2022-08-11T09:07:58.968Z,30.02
2022-08-11T09:08:58.977Z,30.08
2022-08-11T09:09:58.958Z,30.05
2022-08-11T09:10:58.938Z,30.05
2022-08-11T09:11:58.988Z,30.01
2022-08-11T09:12:58.931Z,30.08
2022-08-11T09:14:05.017Z,30.05
2022-08-11T09:14:59.935Z,29.98
2022-08-11T09:15:58.907Z,30.02
2022-08-11T09:16:58.870Z,30.08
2022-08-11T09:17:58.889Z,30.13
2022-08-11T09:18:58.852Z,30.17
2022-08-11T09:19:58.878Z,30.26
2022-08-11T09:20:58.842Z,30.64
2022-08-11T09:21:58.840Z,31.01
2022-08-11T09:23:41.422Z,31.19
2022-08-11T09:24:08.014Z,31.35
2022-08-11T09:24:59.814Z,31.29
2022-08-11T09:25:58.809Z,31.28
2022-08-11T09:26:58.785Z,31.29
2022-08-11T09:27:58.784Z,31.28
2022-08-11T09:28:58.823Z,31.23
2022-08-11T09:29:58.786Z,31.26
2022-08-11T09:30:58.747Z,31.23
2022-08-11T09:31:58.753Z,31.07
2022-08-11T09:32:58.738Z,30.88
2022-08-11T09:33:58.726Z,30.70
2022-08-11T09:34:58.729Z,30.57
2022-08-11T09:35:58.710Z,30.38
2022-08-11T09:36:58.703Z,30.34
2022-08-11T09:37:59.057Z,30.29
2022-08-11T09:38:58.733Z,30.27
2022-08-11T09:39:58.914Z,30.35
2022-08-11T09:40:58.672Z,30.47
2022-08-11T09:42:02.979Z,30.79
2022-08-11T09:42:59.641Z,31.01
2022-08-11T09:44:03.494Z,31.12
2022-08-11T09:45:00.963Z,31.19
2022-08-11T09:45:58.683Z,31.13
2022-08-11T09:46:58.627Z,31.09
2022-08-11T09:47:58.604Z,30.98
2022-08-11T09:48:58.585Z,30.84
2022-08-11T09:49:58.595Z,30.72
2022-08-11T09:50:58.575Z,30.80
2022-08-11T09:52:02.077Z,30.83
2022-08-11T09:53:37.292Z,30.95
2022-08-11T09:54:02.829Z,31.28
2022-08-11T09:54:58.545Z,31.48
2022-08-11T09:55:58.544Z,31.43
2022-08-11T09:57:03.266Z,31.46
2022-08-11T09:57:59.511Z,31.62
2022-08-11T09:58:58.519Z,31.84
2022-08-11T10:00:12.317Z,32.04
2022-08-11T10:00:59.585Z,32.13
2022-08-11T10:01:58.473Z,32.15
2022-08-11T10:02:58.472Z,31.86
2022-08-11T10:03:58.508Z,31.51
2022-08-11T10:04:58.570Z,31.32
2022-08-11T10:05:58.444Z,31.36
2022-08-11T10:06:58.450Z,31.48
2022-08-11T10:07:58.433Z,31.50
2022-08-11T10:08:58.423Z,31.43
2022-08-11T10:09:58.434Z,31.61
2022-08-11T10:10:58.418Z,31.72
2022-08-11T10:11:58.704Z,31.54
2022-08-11T10:12:58.385Z,31.63
2022-08-11T10:14:33.407Z,31.66
2022-08-11T10:14:59.385Z,31.53
2022-08-11T10:15:59.891Z,31.46
2022-08-11T10:16:59.370Z,31.47
2022-08-11T10:17:58.347Z,31.48
2022-08-11T10:18:58.339Z,31.53
2022-08-11T10:20:05.116Z,31.58
2022-08-11T10:20:59.319Z,31.38
2022-08-11T10:21:58.299Z,31.44
2022-08-11T10:22:58.309Z,31.48
2022-08-11T10:24:01.048Z,31.47
2022-08-11T10:24:59.292Z,31.72
2022-08-11T10:25:58.280Z,31.93
2022-08-11T10:26:58.281Z,32.08
2022-08-11T10:28:17.086Z,32.08
2022-08-11T10:29:12.710Z,32.06
2022-08-11T10:29:59.611Z,31.92
2022-08-11T10:30:58.243Z,31.73
2022-08-11T10:32:04.292Z,31.69
2022-08-11T10:32:59.968Z,31.61
2022-08-11T10:33:59.293Z,31.85
2022-08-11T10:34:58.214Z,31.93
2022-08-11T10:35:58.185Z,31.70
2022-08-11T10:36:58.188Z,31.38
2022-08-11T10:38:07.517Z,31.10
2022-08-11T10:38:59.176Z,31.16
2022-08-11T10:39:58.233Z,31.23
2022-08-11T10:40:58.146Z,31.43
2022-08-11T10:42:06.101Z,31.65
2022-08-11T10:42:59.360Z,31.47
2022-08-11T10:44:02.959Z,31.12
2022-08-11T10:44:59.127Z,30.98
2022-08-11T10:45:58.125Z,30.88
2022-08-11T10:46:58.112Z,30.79
2022-08-11T10:47:58.098Z,30.76
2022-08-11T10:48:58.091Z,30.84
2022-08-11T10:49:58.131Z,30.99
2022-08-11T10:50:58.082Z,31.04
2022-08-11T10:51:58.838Z,31.12
2022-08-11T10:52:58.062Z,31.06
2022-08-11T10:53:58.042Z,31.19
2022-08-11T10:54:58.041Z,31.29
2022-08-11T10:55:58.426Z,31.56
2022-08-11T10:56:58.023Z,31.72
2022-08-11T10:58:04.655Z,31.72
2022-08-11T10:59:03.452Z,31.66
2022-08-11T10:59:59.004Z,31.72
2022-08-11T11:00:58.017Z,31.41
2022-08-11T11:01:57.981Z,31.26
2022-08-11T11:03:22.185Z,31.20
2022-08-11T11:03:59.027Z,31.23
2022-08-11T11:04:57.957Z,31.34
2022-08-11T11:06:28.163Z,31.54
2022-08-11T11:06:58.948Z,31.56
2022-08-11T11:07:57.927Z,31.51
2022-08-11T11:09:03.673Z,31.29
2022-08-11T11:09:58.906Z,31.06
2022-08-11T11:10:57.989Z,30.92
2022-08-11T11:11:57.898Z,30.91
2022-08-11T11:12:57.897Z,30.89
2022-08-11T11:13:57.889Z,31.29
2022-08-11T11:14:59.144Z,31.36
2022-08-11T11:15:57.868Z,31.35
2022-08-11T11:16:57.858Z,31.47
2022-08-11T11:17:57.858Z,31.43
2022-08-11T11:19:00.701Z,31.39
2022-08-11T11:19:57.848Z,31.58
2022-08-11T11:20:57.838Z,31.72
2022-08-11T11:21:57.811Z,31.68
2022-08-11T11:22:57.811Z,31.58
2022-08-11T11:23:57.791Z,31.50
2022-08-11T11:24:57.792Z,31.39
2022-08-11T11:25:57.783Z,31.34
2022-08-11T11:26:57.774Z,31.36
2022-08-11T11:27:57.762Z,31.13
2022-08-11T11:28:57.765Z,30.83
2022-08-11T11:29:57.749Z,30.77
2022-08-11T11:30:57.745Z,30.84
2022-08-11T11:31:57.723Z,30.95
2022-08-11T11:32:57.734Z,31.02
2022-08-11T11:34:06.746Z,31.26
2022-08-11T11:34:58.716Z,31.29
2022-08-11T11:35:57.715Z,31.38
2022-08-11T11:36:57.686Z,31.53
2022-08-11T11:38:05.027Z,31.62
2022-08-11T11:38:58.694Z,31.73
2022-08-11T11:39:57.662Z,31.65
2022-08-11T11:40:57.680Z,31.50
2022-08-11T11:41:57.660Z,31.39
2022-08-11T11:42:57.640Z,31.41
2022-08-11T11:43:57.637Z,31.57
2022-08-11T11:45:00.480Z,31.93
2022-08-11T11:45:57.642Z,32.19
2022-08-11T11:46:57.605Z,32.08
2022-08-11T11:47:57.590Z,31.78
2022-08-11T11:48:57.581Z,31.53
2022-08-11T11:49:57.608Z,31.50
2022-08-11T11:50:58.611Z,31.57
2022-08-11T11:51:57.629Z,31.78
2022-08-11T11:52:57.561Z,31.78
2022-08-11T11:53:57.583Z,31.89
2022-08-11T11:54:57.544Z,31.91
2022-08-11T11:55:59.130Z,31.69
2022-08-11T11:56:57.522Z,31.72
2022-08-11T11:57:59.024Z,31.99
2022-08-11T11:58:57.522Z,32.03
2022-08-11T11:59:57.495Z,31.96
2022-08-11T12:00:57.515Z,32.04
2022-08-11T12:01:57.486Z,32.19
2022-08-11T12:02:57.545Z,32.40
2022-08-11T12:03:57.486Z,32.63
2022-08-11T12:04:57.477Z,32.51
2022-08-11T12:05:57.467Z,32.52
2022-08-11T12:06:57.439Z,32.62
2022-08-11T12:08:12.509Z,32.52
2022-08-11T12:08:58.412Z,32.32
2022-08-11T12:09:57.427Z,32.22
2022-08-11T12:10:57.412Z,32.33
2022-08-11T12:11:57.409Z,32.35
2022-08-11T12:12:57.390Z,32.43
2022-08-11T12:13:57.408Z,32.40
2022-08-11T12:14:57.371Z,32.29
2022-08-11T12:16:05.407Z,32.52
2022-08-11T12:16:58.361Z,32.66
2022-08-11T12:17:57.350Z,32.92
2022-08-11T12:18:57.335Z,32.99
2022-08-11T12:19:57.398Z,33.26
2022-08-11T12:20:57.346Z,33.60
2022-08-11T12:21:59.390Z,33.65
2022-08-11T12:22:57.336Z,33.42
2022-08-11T12:23:59.914Z,33.16
2022-08-11T12:24:58.404Z,32.82
2022-08-11T12:26:23.350Z,32.74
2022-08-11T12:27:15.689Z,32.94
2022-08-11T12:27:58.269Z,33.06
2022-08-11T12:28:57.294Z,32.89
2022-08-11T12:29:57.254Z,32.82
2022-08-11T12:30:57.238Z,32.87
2022-08-11T12:31:57.277Z,32.82
2022-08-11T12:32:57.228Z,32.88
2022-08-11T12:33:57.231Z,32.77
2022-08-11T12:34:57.349Z,32.62
2022-08-11T12:36:00.630Z,32.72
2022-08-11T12:36:57.449Z,32.81
2022-08-11T12:38:03.773Z,32.85
2022-08-11T12:38:58.621Z,32.89
2022-08-11T12:40:17.029Z,32.87
2022-08-11T12:41:58.226Z,32.60
2022-08-11T12:42:57.134Z,32.38
2022-08-11T12:43:57.566Z,32.30
2022-08-11T12:44:57.131Z,32.29
2022-08-11T12:45:57.111Z,32.48
2022-08-11T12:46:57.121Z,32.81
2022-08-11T12:48:48.603Z,32.99
2022-08-11T12:49:02.033Z,32.93
2022-08-11T12:49:57.077Z,32.88
2022-08-11T12:50:57.065Z,32.84
2022-08-11T12:52:12.758Z,32.85
2022-08-11T12:52:58.054Z,32.93